Observation data for Northfield on 04/23/2019      Previous  Date       Current Mesonet Observations  Soil Data  Daily Summary Page  Observations in Plain Language
KNOR 230500Z 35011G16KT 14/13 A3004 RMK A01 T01400132  RH  099%=      5-min Rain = 0.03
KNOR 230505Z 36011KT 14/13 A3003 RMK A01 T01400132  RH  099%=      5-min Rain = 0.02
KNOR 230510Z 01012KT 14/13 A3002 RMK A01 T01400132  RH  099%=      5-min Rain = 0.02
KNOR 230515Z 01013KT 14/13 A3002 RMK A01 T01400132  RH  099%=      5-min Rain = 0.01
KNOR 230520Z 02012KT 14/13 A3002 RMK A01 T01400132  RH  099%=      5-min Rain = 0.02
KNOR 230525Z 02012G18KT 14/13 A3002 RMK A01 T01400132  RH  099%=      5-min Rain = 0.01
KNOR 230530Z 01013G19KT 14/13 A3001 RMK A01 T01400132  RH  099%=      5-min Rain = 0.01
KNOR 230535Z 02011KT 14/13 A3001 RMK A01 T01400132  RH  099%=      5-min Rain = 0.01
KNOR 230540Z 03010KT 14/13 A3001 RMK A01 T01400133  RH  099%=      5-min Rain = 0.01
KNOR 230545Z 04011G16KT 14/13 A3001 RMK A01 T01400133  RH  099%=      5-min Rain = 0
KNOR 230550Z 03011KT 14/13 A3001 RMK A01 T01410133  RH  099%=      5-min Rain = 0.01
KNOR 230555Z 03008G15KT 14/13 A3002 RMK A01 T01420134  RH  099%=      5-min Rain = 0
KNOR 230600Z 04009G14KT 14/14 A3003 RMK A01 T01420135  RH  099%=      5-min Rain = 0
KNOR 230605Z 03010KT 14/14 A3002 RMK A01 T01430135  RH  099%=      5-min Rain = 0.01
KNOR 230610Z 02010KT 14/14 A3001 RMK A01 T01430135  RH  099%=      5-min Rain = 0.03
KNOR 230615Z 01010KT 14/14 A3002 RMK A01 T01430136  RH  099%=      5-min Rain = 0.01
KNOR 230620Z 03009KT 14/14 A3002 RMK A01 T01440137  RH  099%=      5-min Rain = 0.01
KNOR 230625Z 03008KT 14/14 A3002 RMK A01 T01440137  RH  099%=      5-min Rain = 0
KNOR 230630Z 02008KT 15/14 A3002 RMK A01 T01450137  RH  099%=      5-min Rain = 0
KNOR 230635Z 00008KT 15/14 A3003 RMK A01 T01450137  RH  100%=      5-min Rain = 0
KNOR 230640Z 00006KT 15/14 A3004 RMK A01 T01450138  RH  100%=      5-min Rain = 0.01
KNOR 230645Z 01007KT 15/14 A3004 RMK A01 T01450138  RH  100%=      5-min Rain = 0
KNOR 230650Z 36004KT 15/14 A3004 RMK A01 T01450138  RH  100%=      5-min Rain = 0.01
KNOR 230655Z 00005KT 15/14 A3004 RMK A01 T01450138  RH  100%=      5-min Rain = 0.01
KNOR 230700Z 35005KT 15/14 A3004 RMK A01 T01460138  RH  100%=      5-min Rain = 0
KNOR 230705Z 00004KT 15/14 A3004 RMK A01 T01460139  RH  100%=      5-min Rain = 0.02
KNOR 230710Z 35003KT 15/14 A3005 RMK A01 T01460139  RH  100%=      5-min Rain = 0.02
KNOR 230715Z 30004KT 15/14 A3005 RMK A01 T01450138  RH  100%=      5-min Rain = 0.05
KNOR 230720Z 33006KT 15/14 A3004 RMK A01 T01460139  RH  100%=      5-min Rain = 0.04
KNOR 230725Z 35008KT 15/14 A3003 RMK A01 T01450138  RH  100%=      5-min Rain = 0.04
KNOR 230730Z 36009KT 15/14 A3002 RMK A01 T01450138  RH  100%=      5-min Rain = 0.02
KNOR 230735Z 01008KT 15/14 A3002 RMK A01 T01450138  RH  100%=      5-min Rain = 0.02
KNOR 230740Z 02011KT 15/14 A3001 RMK A01 T01450138  RH  100%=      5-min Rain = 0.01
KNOR 230745Z 02013G18KT 14/14 A30 RMK A01 T01440138  RH  100%=      5-min Rain = 0.01
KNOR 230750Z 02013KT 14/14 A2999 RMK A01 T01440138  RH  100%=      5-min Rain = 0.01
KNOR 230755Z 03011KT 14/14 A2999 RMK A01 T01440137  RH  100%=      5-min Rain = 0
KNOR 230800Z 03010KT 14/14 A2999 RMK A01 T01440137  RH  100%=      5-min Rain = 0.01
KNOR 230805Z 03008G13KT 14/14 A2999 RMK A01 T01440137  RH  100%=      5-min Rain = 0
KNOR 230810Z 03009KT 14/14 A2999 RMK A01 T01440138  RH  100%=      5-min Rain = 0
KNOR 230815Z 03009KT 14/14 A2999 RMK A01 T01440138  RH  100%=      5-min Rain = 0
KNOR 230820Z 03008KT 14/14 A2999 RMK A01 T01440138  RH  100%=      5-min Rain = 0
KNOR 230825Z 05007KT 14/14 A30 RMK A01 T01440138  RH  100%=      5-min Rain = 0
KNOR 230830Z 06006KT 15/14 A30 RMK A01 T01450138  RH  100%=      5-min Rain = 0
KNOR 230835Z 05008KT 15/14 A2999 RMK A01 T01450138  RH  100%=      5-min Rain = 0
KNOR 230840Z 05008KT 15/14 A2999 RMK A01 T01450138  RH  100%=      5-min Rain = 0
KNOR 230845Z 05007KT 15/14 A2999 RMK A01 T01450138  RH  100%=      5-min Rain = 0
KNOR 230850Z 05008KT 15/14 A2999 RMK A01 T01450138  RH  100%=      5-min Rain = 0
KNOR 230855Z 05009KT 15/14 A2999 RMK A01 T01450138  RH  100%=      5-min Rain = 0
KNOR 230900Z 05007KT 15/14 A2999 RMK A01 T01450138  RH  100%=      5-min Rain = 0
KNOR 230905Z 06008KT 14/14 A2999 RMK A01 T01440138  RH  100%=      5-min Rain = 0
KNOR 230910Z 06007KT 14/14 A2999 RMK A01 T01440138  RH  100%=      5-min Rain = 0
KNOR 230915Z 06008KT 14/14 A2998 RMK A01 T01440137  RH  100%=      5-min Rain = 0
KNOR 230920Z 06006KT 14/14 A2999 RMK A01 T01440138  RH  100%=      5-min Rain = 0
KNOR 230925Z 06006KT 14/14 A2999 RMK A01 T01440138  RH  100%=      5-min Rain = 0
KNOR 230930Z 05005KT 14/14 A2999 RMK A01 T01440138  RH  100%=      5-min Rain = 0
KNOR 230935Z 05006KT 14/14 A2999 RMK A01 T01440138  RH  100%=      5-min Rain = 0
KNOR 230940Z 05007G12KT 14/14 A2998 RMK A01 T01440138  RH  100%=      5-min Rain = 0
KNOR 230945Z 05008G13KT 14/14 A2998 RMK A01 T01440137  RH  100%=      5-min Rain = 0
KNOR 230950Z 06008KT 14/14 A2998 RMK A01 T01440138  RH  100%=      5-min Rain = 0.01
KNOR 230955Z 07007KT 14/14 A2999 RMK A01 T01440137  RH  100%=      5-min Rain = 0
KNOR 231000Z 06007KT 14/14 A2999 RMK A01 T01440137  RH  100%=      5-min Rain = 0
KNOR 231005Z 05007KT 14/14 A2999 RMK A01 T01440137  RH  100%=      5-min Rain = 0
KNOR 231010Z 04008KT 14/14 A2999 RMK A01 T01430137  RH  100%=      5-min Rain = 0
KNOR 231015Z 06004KT 14/14 A30 RMK A01 T01440137  RH  100%=      5-min Rain = 0
KNOR 231020Z 07004KT 14/14 A30 RMK A01 T01430137  RH  100%=      5-min Rain = 0
KNOR 231025Z 06007KT 14/14 A30 RMK A01 T01430136  RH  100%=      5-min Rain = 0.01
KNOR 231030Z 06006KT 14/14 A30 RMK A01 T01420136  RH  100%=      5-min Rain = 0
KNOR 231035Z 05005KT 14/14 A3001 RMK A01 T01420136  RH  100%=      5-min Rain = 0
KNOR 231040Z 04006KT 14/14 A3001 RMK A01 T01430136  RH  100%=      5-min Rain = 0.01
KNOR 231045Z 04006KT 14/14 A3001 RMK A01 T01430136  RH  100%=      5-min Rain = 0.01
KNOR 231050Z 04007KT 14/14 A30 RMK A01 T01420136  RH  100%=      5-min Rain = 0
KNOR 231055Z 04006KT 14/14 A3001 RMK A01 T01420135  RH  100%=      5-min Rain = 0.01
KNOR 231100Z 05004KT 14/14 A3001 RMK A01 T01420135  RH  100%=      5-min Rain = 0
KNOR 231105Z 05001KT 14/14 A3002 RMK A01 T01420136  RH  100%=      5-min Rain = 0
KNOR 231110Z 29002KT 14/14 A3004 RMK A01 T01420136  RH  100%=      5-min Rain = 0.01
KNOR 231115Z 28006KT 14/14 A3006 RMK A01 T01420136  RH  100%=      5-min Rain = 0.06
KNOR 231120Z 26010KT 14/14 A3007 RMK A01 T01420136  RH  100%=      5-min Rain = 0.09
KNOR 231125Z 28006G12KT 14/14 A3006 RMK A01 T01410135  RH  100%=      5-min Rain = 0.05
KNOR 231130Z 01011KT 14/13 A3001 RMK A01 T01400134  RH  100%=      5-min Rain = 0.02
KNOR 231135Z 04013KT 14/13 A2999 RMK A01 T01400133  RH  100%=      5-min Rain = 0.01
KNOR 231140Z 06013G18KT 14/13 A2998 RMK A01 T01390133  RH  100%=      5-min Rain = 0.01
KNOR 231145Z 05012G17KT 14/13 A2998 RMK A01 T01390133  RH  100%=      5-min Rain = 0
KNOR 231150Z 05009G14KT 14/13 A30 RMK A01 T01390133  RH  100%=      5-min Rain = 0
KNOR 231155Z 05007KT 14/13 A3001 RMK A01 T01390133  RH  100%=      5-min Rain = 0
KNOR 231200Z 05008KT 14/13 A3001 RMK A01 T01380132  RH  100%=      5-min Rain = 0
KNOR 231205Z 04007KT 14/13 A3001 RMK A01 T01380132  RH  100%=      5-min Rain = 0
KNOR 231210Z 01007KT 14/13 A3001 RMK A01 T01380131  RH  100%=      5-min Rain = 0
KNOR 231215Z 01006KT 14/13 A3001 RMK A01 T01380132  RH  100%=      5-min Rain = 0
KNOR 231220Z 02005KT 14/13 A3001 RMK A01 T01380132  RH  100%=      5-min Rain = 0
KNOR 231225Z 03004KT 14/13 A3001 RMK A01 T01390133  RH  100%=      5-min Rain = 0.01
KNOR 231230Z 04003KT 14/13 A3002 RMK A01 T01390133  RH  100%=      5-min Rain = 0
KNOR 231235Z 04002KT 14/13 A3003 RMK A01 T01390133  RH  100%=      5-min Rain = 0
KNOR 231240Z 04002KT 14/13 A3004 RMK A01 T01390133  RH  100%=      5-min Rain = 0
KNOR 231245Z 03003KT 14/13 A3004 RMK A01 T01400133  RH  100%=      5-min Rain = 0
KNOR 231250Z 02003KT 14/13 A3005 RMK A01 T01390133  RH  100%=      5-min Rain = 0
KNOR 231255Z 01005KT 14/13 A3005 RMK A01 T01400134  RH  100%=      5-min Rain = 0
KNOR 231300Z 01005KT 14/13 A3005 RMK A01 T01400134  RH  100%=      5-min Rain = 0
KNOR 231305Z 00003KT 14/13 A3006 RMK A01 T01410134  RH  100%=      5-min Rain = 0
KNOR 231310Z 01005KT 14/13 A3005 RMK A01 T01400134  RH  100%=      5-min Rain = 0
KNOR 231315Z 01005KT 14/13 A3005 RMK A01 T01400134  RH  100%=      5-min Rain = 0
KNOR 231320Z 01005KT 14/13 A3005 RMK A01 T01400134  RH  100%=      5-min Rain = 0
KNOR 231325Z 36004KT 14/13 A3006 RMK A01 T01400134  RH  100%=      5-min Rain = 0
KNOR 231330Z 01006KT 14/14 A3006 RMK A01 T01410135  RH  100%=      5-min Rain = 0
KNOR 231335Z 02006KT 14/14 A3006 RMK A01 T01410135  RH  100%=      5-min Rain = 0
KNOR 231340Z 03006KT 14/14 A3006 RMK A01 T01410135  RH  100%=      5-min Rain = 0
KNOR 231345Z 02007KT 14/13 A3006 RMK A01 T01400134  RH  100%=      5-min Rain = 0
KNOR 231350Z 02006KT 14/13 A3007 RMK A01 T01400134  RH  100%=      5-min Rain = 0
KNOR 231355Z 02007KT 14/13 A3007 RMK A01 T01400134  RH  100%=      5-min Rain = 0
KNOR 231400Z 02009KT 14/13 A3007 RMK A01 T01390133  RH  100%=      5-min Rain = 0
KNOR 231405Z 02007KT 14/13 A3007 RMK A01 T01390133  RH  100%=      5-min Rain = 0
KNOR 231410Z 03006KT 14/13 A3007 RMK A01 T01400134  RH  100%=      5-min Rain = 0
KNOR 231415Z 02008KT 14/13 A3007 RMK A01 T01400134  RH  100%=      5-min Rain = 0
KNOR 231420Z 02008KT 14/13 A3007 RMK A01 T01390133  RH  100%=      5-min Rain = 0
KNOR 231425Z 03007KT 14/13 A3007 RMK A01 T01400134  RH  100%=      5-min Rain = 0
KNOR 231430Z 03008G13KT 14/13 A3007 RMK A01 T01410134  RH  100%=      5-min Rain = 0
KNOR 231435Z 03008KT 14/13 A3007 RMK A01 T01400134  RH  100%=      5-min Rain = 0
KNOR 231440Z 03008KT 14/13 A3007 RMK A01 T01410134  RH  100%=      5-min Rain = 0
KNOR 231445Z 04009KT 14/13 A3007 RMK A01 T01400134  RH  100%=      5-min Rain = 0
KNOR 231450Z 03010KT 14/13 A3006 RMK A01 T01400134  RH  100%=      5-min Rain = 0
KNOR 231455Z 03009KT 14/13 A3007 RMK A01 T01400134  RH  100%=      5-min Rain = 0
KNOR 231500Z 03008KT 14/14 A3007 RMK A01 T01420135  RH  100%=      5-min Rain = 0
KNOR 231505Z 04008G13KT 14/14 A3007 RMK A01 T01430136  RH  100%=      5-min Rain = 0
KNOR 231510Z 04009KT 14/14 A3007 RMK A01 T01420135  RH  100%=      5-min Rain = 0
KNOR 231515Z 04009KT 14/14 A3007 RMK A01 T01430136  RH  099%=      5-min Rain = 0
KNOR 231520Z 04010KT 14/14 A3007 RMK A01 T01430135  RH  099%=      5-min Rain = 0
KNOR 231525Z 05009KT 14/13 A3007 RMK A01 T01430134  RH  098%=      5-min Rain = 0
KNOR 231530Z 05010KT 14/13 A3007 RMK A01 T01430134  RH  098%=      5-min Rain = 0
KNOR 231535Z 06008KT 15/14 A3007 RMK A01 T01450135  RH  097%=      5-min Rain = 0
KNOR 231540Z 06007KT 15/14 A3008 RMK A01 T01460135  RH  097%=      5-min Rain = 0
KNOR 231545Z 07006KT 15/13 A3008 RMK A01 T01450134  RH  097%=      5-min Rain = 0
KNOR 231550Z 07007KT 15/13 A3008 RMK A01 T01450134  RH  097%=      5-min Rain = 0
KNOR 231555Z 08006KT 14/13 A3009 RMK A01 T01440133  RH  097%=      5-min Rain = 0
KNOR 231600Z 07006KT 15/13 A3009 RMK A01 T01450134  RH  097%=      5-min Rain = 0
KNOR 231605Z 07005KT 15/13 A3009 RMK A01 T01450134  RH  097%=      5-min Rain = 0.01
KNOR 231610Z 05006KT 14/13 A3009 RMK A01 T01440134  RH  098%=      5-min Rain = 0
KNOR 231615Z 02012G17KT 14/13 A301 RMK A01 T01350125  RH  097%=      5-min Rain = 0.01
KNOR 231620Z 03010KT 13/12 A301 RMK A01 T01310122  RH  098%=      5-min Rain = 0.01
KNOR 231625Z 03012KT 13/12 A301 RMK A01 T01300122  RH  098%=      5-min Rain = 0.01
KNOR 231630Z 03011G16KT 13/12 A301 RMK A01 T01300122  RH  099%=      5-min Rain = 0.01
KNOR 231635Z 03009KT 13/13 A3009 RMK A01 T01320125  RH  099%=      5-min Rain = 0
KNOR 231640Z 03011G16KT 13/13 A3008 RMK A01 T01340127  RH  099%=      5-min Rain = 0
KNOR 231645Z 03011G16KT 14/13 A3008 RMK A01 T01360129  RH  099%=      5-min Rain = 0
KNOR 231650Z 03011KT 13/13 A3008 RMK A01 T01340127  RH  099%=      5-min Rain = 0
KNOR 231655Z 03010G15KT 13/13 A3008 RMK A01 T01340127  RH  099%=      5-min Rain = 0
KNOR 231700Z 02012KT 13/13 A3007 RMK A01 T01330126  RH  099%=      5-min Rain = 0
KNOR 231705Z 03011G16KT 13/13 A3007 RMK A01 T01330126  RH  099%=      5-min Rain = 0
KNOR 231710Z 03012G17KT 13/12 A3007 RMK A01 T01310124  RH  099%=      5-min Rain = 0
KNOR 231715Z 02014KT 13/12 A3007 RMK A01 T01290122  RH  099%=      5-min Rain = 0
KNOR 231720Z 03013KT 13/12 A3007 RMK A01 T01310122  RH  098%=      5-min Rain = 0
KNOR 231725Z 02013KT 13/12 A3007 RMK A01 T01310121  RH  097%=      5-min Rain = 0
KNOR 231730Z 03013G18KT 13/12 A3006 RMK A01 T01320121  RH  096%=      5-min Rain = 0
KNOR 231735Z 03011G17KT 13/12 A3006 RMK A01 T01340122  RH  096%=      5-min Rain = 0
KNOR 231740Z 03013G18KT 13/12 A3007 RMK A01 T01340120  RH  095%=      5-min Rain = 0
KNOR 231745Z 03012G18KT 13/12 A3007 RMK A01 T01330119  RH  094%=      5-min Rain = 0
KNOR 231750Z 02011KT 13/12 A3007 RMK A01 T01340120  RH  094%=      5-min Rain = 0
KNOR 231755Z 02013KT 13/12 A3006 RMK A01 T01340119  RH  094%=      5-min Rain = 0
KNOR 231800Z 02013KT 13/12 A3006 RMK A01 T01340119  RH  094%=      5-min Rain = 0
KNOR 231805Z 01016KT 13/12 A3006 RMK A01 T01320117  RH  094%=      5-min Rain = 0
KNOR 231810Z 01014G19KT 13/12 A3005 RMK A01 T01300115  RH  094%=      5-min Rain = 0
KNOR 231815Z 02014KT 13/12 A3005 RMK A01 T01300115  RH  094%=      5-min Rain = 0
KNOR 231820Z 02014G19KT 13/12 A3005 RMK A01 T01310115  RH  093%=      5-min Rain = 0
KNOR 231825Z 02014KT 13/12 A3005 RMK A01 T01340116  RH  092%=      5-min Rain = 0
KNOR 231830Z 02013G18KT 14/12 A3005 RMK A01 T01360117  RH  091%=      5-min Rain = 0
KNOR 231835Z 02011KT 14/12 A3005 RMK A01 T01360117  RH  091%=      5-min Rain = 0
KNOR 231840Z 01012KT 13/12 A3006 RMK A01 T01340115  RH  092%=      5-min Rain = 0
KNOR 231845Z 01010KT 14/12 A3006 RMK A01 T01350115  RH  091%=      5-min Rain = 0
KNOR 231850Z 01012KT 14/12 A3005 RMK A01 T01370116  RH  090%=      5-min Rain = 0
KNOR 231855Z 01012KT 14/12 A3005 RMK A01 T01400117  RH  089%=      5-min Rain = 0
KNOR 231900Z 03011KT 14/12 A3006 RMK A01 T01410117  RH  089%=      5-min Rain = 0
KNOR 231905Z 03010KT 14/12 A3006 RMK A01 T01430117  RH  088%=      5-min Rain = 0
KNOR 231910Z 02009KT 14/12 A3006 RMK A01 T01440117  RH  087%=      5-min Rain = 0
KNOR 231915Z 02008KT 14/12 A3006 RMK A01 T01440118  RH  088%=      5-min Rain = 0
KNOR 231920Z 01009KT 14/12 A3006 RMK A01 T01410116  RH  088%=      5-min Rain = 0
KNOR 231925Z 01009KT 14/12 A3006 RMK A01 T01400116  RH  089%=      5-min Rain = 0
KNOR 231930Z 02008KT 14/11 A3006 RMK A01 T01390113  RH  087%=      5-min Rain = 0
KNOR 231935Z 02008KT 14/12 A3006 RMK A01 T01430116  RH  087%=      5-min Rain = 0
KNOR 231940Z 02009KT 14/11 A3006 RMK A01 T01430114  RH  085%=      5-min Rain = 0
KNOR 231945Z 01009KT 14/11 A3006 RMK A01 T01420112  RH  085%=      5-min Rain = 0
KNOR 231950Z 02008KT 14/11 A3006 RMK A01 T01430112  RH  084%=      5-min Rain = 0
KNOR 231955Z 03008KT 14/11 A3006 RMK A01 T01430111  RH  084%=      5-min Rain = 0
KNOR 232000Z 03007KT 15/11 A3006 RMK A01 T01450112  RH  084%=      5-min Rain = 0
KNOR 232005Z 03006KT 15/11 A3006 RMK A01 T01460113  RH  083%=      5-min Rain = 0
KNOR 232010Z 04005KT 15/11 A3006 RMK A01 T01450111  RH  083%=      5-min Rain = 0
KNOR 232015Z 03006KT 15/11 A3006 RMK A01 T01460111  RH  082%=      5-min Rain = 0
KNOR 232020Z 04006KT 15/11 A3006 RMK A01 T01470113  RH  083%=      5-min Rain = 0
KNOR 232025Z 03006KT 15/11 A3006 RMK A01 T01470112  RH  082%=      5-min Rain = 0
KNOR 232030Z 03007KT 15/11 A3005 RMK A01 T01470111  RH  082%=      5-min Rain = 0
KNOR 232035Z 02006KT 15/11 A3006 RMK A01 T01470112  RH  082%=      5-min Rain = 0
KNOR 232040Z 02007KT 15/11 A3005 RMK A01 T01470112  RH  082%=      5-min Rain = 0
KNOR 232045Z 03006KT 15/11 A3005 RMK A01 T01480111  RH  081%=      5-min Rain = 0
KNOR 232050Z 02007KT 15/11 A3005 RMK A01 T01510113  RH  081%=      5-min Rain = 0
KNOR 232055Z 01007KT 15/11 A3005 RMK A01 T01530114  RH  080%=      5-min Rain = 0
KNOR 232100Z 03007KT 15/11 A3005 RMK A01 T01530112  RH  079%=      5-min Rain = 0
KNOR 232105Z 03006KT 15/11 A3005 RMK A01 T01540113  RH  079%=      5-min Rain = 0
KNOR 232110Z 01007KT 16/11 A3004 RMK A01 T01570114  RH  078%=      5-min Rain = 0
KNOR 232115Z 01008KT 16/11 A3004 RMK A01 T01580114  RH  078%=      5-min Rain = 0
KNOR 232120Z 02007KT 16/11 A3004 RMK A01 T01570113  RH  078%=      5-min Rain = 0
KNOR 232125Z 00008KT 16/11 A3004 RMK A01 T01570114  RH  078%=      5-min Rain = 0
KNOR 232130Z 00008KT 16/11 A3004 RMK A01 T01550113  RH  079%=      5-min Rain = 0
KNOR 232135Z 36008KT 16/11 A3004 RMK A01 T01550113  RH  079%=      5-min Rain = 0
KNOR 232140Z 01008KT 15/11 A3004 RMK A01 T01540113  RH  079%=      5-min Rain = 0
KNOR 232145Z 00007KT 16/11 A3004 RMK A01 T01560114  RH  079%=      5-min Rain = 0
KNOR 232150Z 02008KT 16/12 A3003 RMK A01 T01570115  RH  079%=      5-min Rain = 0
KNOR 232155Z 01007KT 16/12 A3003 RMK A01 T01560115  RH  079%=      5-min Rain = 0
KNOR 232200Z 01008KT 16/11 A3003 RMK A01 T01560114  RH  079%=      5-min Rain = 0
KNOR 232205Z 02008KT 16/11 A3003 RMK A01 T01550112  RH  078%=      5-min Rain = 0
KNOR 232210Z 02007KT 16/12 A3003 RMK A01 T01570115  RH  079%=      5-min Rain = 0
KNOR 232215Z 03007KT 16/11 A3002 RMK A01 T01560114  RH  079%=      5-min Rain = 0
KNOR 232220Z 04007KT 16/11 A3003 RMK A01 T01550113  RH  079%=      5-min Rain = 0
KNOR 232225Z 02007KT 16/11 A3002 RMK A01 T01560113  RH  079%=      5-min Rain = 0
KNOR 232230Z 01006KT 16/12 A3002 RMK A01 T01570115  RH  079%=      5-min Rain = 0
KNOR 232235Z 02006KT 16/12 A3002 RMK A01 T01580115  RH  078%=      5-min Rain = 0
KNOR 232240Z 02006KT 16/11 A3002 RMK A01 T01570114  RH  078%=      5-min Rain = 0
KNOR 232245Z 02007KT 16/11 A3002 RMK A01 T01560113  RH  078%=      5-min Rain = 0
KNOR 232250Z 02007KT 16/11 A3002 RMK A01 T01570114  RH  078%=      5-min Rain = 0
KNOR 232255Z 02008KT 16/11 A3002 RMK A01 T01560113  RH  079%=      5-min Rain = 0
KNOR 232300Z 04007KT 16/11 A3001 RMK A01 T01550113  RH  079%=      5-min Rain = 0
KNOR 232305Z 03006KT 16/11 A3001 RMK A01 T01550113  RH  079%=      5-min Rain = 0
KNOR 232310Z 03005KT 16/11 A3001 RMK A01 T01560114  RH  079%=      5-min Rain = 0
KNOR 232315Z 04006KT 16/11 A3001 RMK A01 T01560114  RH  079%=      5-min Rain = 0
KNOR 232320Z 04005KT 16/11 A3001 RMK A01 T01550114  RH  079%=      5-min Rain = 0
KNOR 232325Z 05005KT 16/12 A3001 RMK A01 T01560115  RH  079%=      5-min Rain = 0
KNOR 232330Z 04006KT 16/11 A3001 RMK A01 T01560114  RH  079%=      5-min Rain = 0
KNOR 232335Z 04005KT 16/11 A3001 RMK A01 T01550114  RH  079%=      5-min Rain = 0
KNOR 232340Z 03006KT 16/11 A3001 RMK A01 T01560114  RH  079%=      5-min Rain = 0
KNOR 232345Z 02005KT 16/11 A3001 RMK A01 T01550114  RH  079%=      5-min Rain = 0
KNOR 232350Z 03006KT 16/11 A3001 RMK A01 T01550114  RH  079%=      5-min Rain = 0
KNOR 232355Z 04004KT 16/12 A3002 RMK A01 T01550115  RH  080%=      5-min Rain = 0
KNOR 240000Z 03003KT 16/12 A3002 RMK A01 T01560115  RH  080%=      5-min Rain = 0
KNOR 240005Z 02004KT 16/11 A3001 RMK A01 T01560114  RH  079%=      5-min Rain = 0
KNOR 240010Z 01005KT 16/12 A3001 RMK A01 T01570115  RH  079%=      5-min Rain = 0
KNOR 240015Z 02005KT 16/12 A30 RMK A01 T01580116  RH  079%=      5-min Rain = 0
KNOR 240020Z 02005KT 16/12 A30 RMK A01 T01600117  RH  078%=      5-min Rain = 0
KNOR 240025Z 02007KT 16/12 A30 RMK A01 T01590115  RH  078%=      5-min Rain = 0
KNOR 240030Z 03006KT 16/11 A30 RMK A01 T01580114  RH  078%=      5-min Rain = 0
KNOR 240035Z 04006KT 16/11 A3001 RMK A01 T01570113  RH  078%=      5-min Rain = 0
KNOR 240040Z 04006KT 16/11 A3001 RMK A01 T01560113  RH  078%=      5-min Rain = 0
KNOR 240045Z 04006KT 16/11 A3001 RMK A01 T01560113  RH  078%=      5-min Rain = 0
KNOR 240050Z 04005KT 16/11 A3001 RMK A01 T01550114  RH  079%=      5-min Rain = 0
KNOR 240055Z 02006KT 15/11 A3001 RMK A01 T01540114  RH  080%=      5-min Rain = 0
KNOR 240100Z 01007KT 15/11 A30 RMK A01 T01520114  RH  081%=      5-min Rain = 0
KNOR 240105Z 01006KT 15/11 A30 RMK A01 T01510114  RH  082%=      5-min Rain = 0
KNOR 240110Z 02004KT 15/11 A3001 RMK A01 T01500114  RH  082%=      5-min Rain = 0
KNOR 240115Z 03004KT 15/11 A3001 RMK A01 T01490114  RH  082%=      5-min Rain = 0
KNOR 240120Z 03003KT 15/11 A3001 RMK A01 T01480114  RH  083%=      5-min Rain = 0
KNOR 240125Z 05003KT 15/11 A3001 RMK A01 T01460114  RH  084%=      5-min Rain = 0
KNOR 240130Z 05003KT 14/11 A3001 RMK A01 T01430114  RH  086%=      5-min Rain = 0
KNOR 240135Z 05002KT 14/11 A3002 RMK A01 T01420114  RH  086%=      5-min Rain = 0
KNOR 240140Z 08004KT 14/11 A3002 RMK A01 T01400113  RH  087%=      5-min Rain = 0
KNOR 240145Z 09004KT 14/11 A3002 RMK A01 T01380112  RH  087%=      5-min Rain = 0
KNOR 240150Z 09003KT 14/11 A3001 RMK A01 T01380112  RH  088%=      5-min Rain = 0
KNOR 240155Z 10003KT 14/11 A3001 RMK A01 T01370112  RH  088%=      5-min Rain = 0
KNOR 240200Z 10004KT 14/11 A3001 RMK A01 T01360112  RH  089%=      5-min Rain = 0
KNOR 240205Z 07003KT 14/11 A3001 RMK A01 T01350112  RH  089%=      5-min Rain = 0
KNOR 240210Z 05003KT 13/11 A3001 RMK A01 T01330111  RH  090%=      5-min Rain = 0
KNOR 240215Z 04004KT 13/11 A3001 RMK A01 T01330111  RH  090%=      5-min Rain = 0
KNOR 240220Z 04004KT 13/11 A3001 RMK A01 T01310111  RH  090%=      5-min Rain = 0
KNOR 240225Z 07004KT 13/11 A3001 RMK A01 T01300110  RH  091%=      5-min Rain = 0
KNOR 240230Z 07004KT 13/11 A3001 RMK A01 T01300111  RH  091%=      5-min Rain = 0
KNOR 240235Z 06004KT 13/11 A3001 RMK A01 T01300111  RH  091%=      5-min Rain = 0
KNOR 240240Z 07004KT 13/11 A3001 RMK A01 T01290111  RH  092%=      5-min Rain = 0
KNOR 240245Z 09004KT 13/11 A3002 RMK A01 T01300112  RH  092%=      5-min Rain = 0
KNOR 240250Z 09005KT 13/11 A3002 RMK A01 T01300112  RH  092%=      5-min Rain = 0
KNOR 240255Z 09004KT 13/11 A3002 RMK A01 T01290112  RH  092%=      5-min Rain = 0
KNOR 240300Z 07004KT 13/11 A3002 RMK A01 T01280111  RH  093%=      5-min Rain = 0
KNOR 240305Z 05004KT 13/11 A3002 RMK A01 T01270110  RH  093%=      5-min Rain = 0
KNOR 240310Z 05004KT 13/11 A3002 RMK A01 T01250110  RH  094%=      5-min Rain = 0
KNOR 240315Z 05004KT 13/11 A3002 RMK A01 T01250110  RH  094%=      5-min Rain = 0
KNOR 240320Z 04004KT 12/11 A3002 RMK A01 T01240110  RH  094%=      5-min Rain = 0
KNOR 240325Z 02005KT 12/11 A3001 RMK A01 T01240110  RH  094%=      5-min Rain = 0
KNOR 240330Z 02005KT 12/11 A3002 RMK A01 T01240110  RH  095%=      5-min Rain = 0
KNOR 240335Z 01005KT 12/11 A3001 RMK A01 T01220109  RH  095%=      5-min Rain = 0
KNOR 240340Z 00005KT 12/11 A3001 RMK A01 T01210108  RH  095%=      5-min Rain = 0
KNOR 240345Z 02003KT 12/11 A3001 RMK A01 T01210110  RH  096%=      5-min Rain = 0
KNOR 240350Z 01002KT 12/11 A3002 RMK A01 T01210110  RH  096%=      5-min Rain = 0
KNOR 240355Z 00004KT 12/11 A3001 RMK A01 T01200109  RH  096%=      5-min Rain = 0
KNOR 240400Z 01003KT 12/11 A3002 RMK A01 T01180108  RH  097%=      5-min Rain = 0
KNOR 240405Z 02002KT 12/11 A3002 RMK A01 T01190109  RH  097%=      5-min Rain = 0
KNOR 240410Z 01002KT 12/11 A3003 RMK A01 T01210111  RH  097%=      5-min Rain = 0
KNOR 240415Z 03002KT 12/11 A3003 RMK A01 T01210112  RH  097%=      5-min Rain = 0
KNOR 240420Z 01002KT 12/11 A3002 RMK A01 T01220112  RH  097%=      5-min Rain = 0
KNOR 240425Z 33003KT 12/11 A3002 RMK A01 T01180108  RH  097%=      5-min Rain = 0
KNOR 240430Z 31003KT 11/10 A3002 RMK A01 T01140104  RH  097%=      5-min Rain = 0
KNOR 240435Z 29004KT 11/10 A3002 RMK A01 T01120103  RH  097%=      5-min Rain = 0
KNOR 240440Z 29004KT 11/10 A3002 RMK A01 T01130104  RH  098%=      5-min Rain = 0
KNOR 240445Z 26003KT 11/11 A3003 RMK A01 T01140106  RH  098%=      5-min Rain = 0
KNOR 240450Z 22003KT 11/11 A3003 RMK A01 T01140106  RH  098%=      5-min Rain = 0
KNOR 240455Z 23003KT 11/10 A3003 RMK A01 T01100103  RH  098%=      5-min Rain = 0

Page generated in 0.0295 seconds.